Time;durP1;ratioP1;P1;durP2;ratioP2;P2;SDS_P1;SDS_P2;PMS_P1;PMS_P2;Temp;Humidity;BMP_temperature;BMP_pressure;BME280_temperature;BME280_humidity;BME280_pressure;Samples;Min_cycle;Max_cycle;Signal;HPM_P1;HPM_P2
2022/02/18 00:00:10;;;;;;;;;;;;;;;8.95;59.68;99284.19;4347572;33;19980;-86
2022/02/18 00:02:35;;;;;;;;;;;;;;;8.95;59.68;99291.97;4321708;33;20370;-87
2022/02/18 00:05:00;;;;;;;;;;;;;;;8.97;59.69;99295.38;4347493;33;20267;-87
2022/02/18 00:07:26;;;;;;;;;;;;;;;9.03;59.68;99279.63;4333607;33;20015;-86
2022/02/18 00:09:51;;;;;;;;;;;;;;;8.89;59.67;99287.84;4332954;33;26974;-86
2022/02/18 00:12:16;;;;;;;;;;;;;;;9.00;59.68;99292.72;4346864;33;19994;-85
2022/02/18 00:14:41;;;;;;;;;;;;;;;9.01;59.68;99290.06;4333900;33;19995;-86
2022/02/18 00:17:07;;;;;;;;;;;;;;;8.96;59.68;99298.88;4320915;33;20023;-85
2022/02/18 00:19:32;;;;;;;;;;;;;;;9.04;59.69;99289.97;4347114;33;20027;-86
2022/02/18 00:21:58;;;;;;;;;;;;;;;8.95;59.68;99315.34;4347156;33;20297;-86
2022/02/18 00:24:23;;;;;;;;;;;;;;;8.89;59.67;99298.22;4321132;33;19995;-86
2022/02/18 00:26:48;;;;;;;;;;;;;;;9.00;59.68;99319.50;4333323;33;20622;-86
2022/02/18 00:29:13;;;;;;;;;;;;;;;8.99;59.68;99324.72;4346817;33;19984;-86
2022/02/18 00:31:38;;;;;;;;;;;;;;;8.87;59.67;99341.56;4321530;33;20018;-85
2022/02/18 00:34:04;;;;;;;;;;;;;;;8.74;59.66;99340.22;4334198;33;20003;-87
2022/02/18 00:36:29;;;;;;;;;;;;;;;8.86;59.67;99329.47;4350502;32;19986;-87
2022/02/18 00:38:54;;;;;;;;;;;;;;;8.84;59.68;99324.34;4354115;32;21768;-88
2022/02/18 00:41:19;;;;;;;;;;;;;;;8.90;59.68;99336.25;4324562;33;20007;-88
2022/02/18 00:43:45;;;;;;;;;;;;;;;8.96;59.68;99330.03;4347312;33;20067;-88
2022/02/18 00:46:10;;;;;;;;;;;;;;;9.14;59.69;99345.00;4346711;33;20289;-87
2022/02/18 00:48:35;;;;;;;;;;;;;;;9.02;59.68;99345.44;4333132;33;20521;-88
2022/02/18 00:51:00;;;;;;;;;;;;;;;8.98;59.69;99343.78;4343802;33;19987;-91
2022/02/18 00:53:26;;;;;;;;;;;;;;;8.91;59.68;99345.75;4333395;32;20031;-88
2022/02/18 00:55:51;;;;;;;;;;;;;;;9.08;59.69;99350.41;4333235;33;20223;-88
2022/02/18 00:58:19;;;;;;;;;;;;;;;9.13;59.69;99344.16;4320851;33;20031;-88
2022/02/18 01:00:44;;;;;;;;;;;;;;;9.25;59.69;99340.34;4321014;33;20011;-88
2022/02/18 01:03:09;;;;;;;;;;;;;;;9.07;59.69;99336.59;4332796;33;20000;-87
2022/02/18 01:05:35;;;;;;;;;;;;;;;8.95;59.68;99336.97;4345147;33;19991;-89
2022/02/18 01:08:00;;;;;;;;;;;;;;;9.02;59.68;99330.69;4334330;33;19995;-87
2022/02/18 01:10:25;;;;;;;;;;;;;;;8.94;59.68;99327.47;4335254;33;20019;-88
2022/02/18 01:12:50;;;;;;;;;;;;;;;8.93;59.68;99324.03;4347472;33;20141;-88
2022/02/18 01:15:16;;;;;;;;;;;;;;;9.08;59.69;99322.69;4348813;33;20015;-86
2022/02/18 01:17:41;;;;;;;;;;;;;;;9.02;59.68;99315.13;4348673;33;20199;-87
2022/02/18 01:20:07;;;;;;;;;;;;;;;9.12;59.69;99316.50;4348300;33;24412;-87
2022/02/18 01:22:33;;;;;;;;;;;;;;;9.12;59.69;99315.66;4335084;33;19991;-87
2022/02/18 01:24:58;;;;;;;;;;;;;;;8.94;59.68;99309.31;4348734;32;20095;-87
2022/02/18 01:27:23;;;;;;;;;;;;;;;9.13;59.69;99310.41;4348727;33;19972;-88
2022/02/18 01:29:48;;;;;;;;;;;;;;;9.17;59.69;99314.59;4334777;33;20062;-87
2022/02/18 01:32:14;;;;;;;;;;;;;;;9.11;59.68;99325.19;4347099;33;20007;-87
2022/02/18 01:34:39;;;;;;;;;;;;;;;9.15;59.69;99312.94;4334642;33;20286;-87
2022/02/18 01:37:04;;;;;;;;;;;;;;;9.13;59.69;99325.13;4322664;33;20046;-88
2022/02/18 01:39:29;;;;;;;;;;;;;;;9.15;59.69;99307.75;4335092;32;20298;-88
2022/02/18 01:41:55;;;;;;;;;;;;;;;8.92;59.68;99301.56;4322722;33;20049;-87
2022/02/18 01:44:42;;;;;;;;;;;;;;;8.97;59.69;99308.34;4348696;33;20334;-88
2022/02/18 01:47:10;;;;;;;;;;;;;;;8.98;59.69;99299.66;4348629;33;20317;-88
2022/02/18 01:49:36;;;;;;;;;;;;;;;8.98;59.69;99292.72;4348411;32;19972;-88
2022/02/18 01:52:01;;;;;;;;;;;;;;;9.08;59.69;99288.09;4328987;33;20007;-88
2022/02/18 01:54:26;;;;;;;;;;;;;;;9.00;59.68;99277.13;4332626;33;20015;-90
2022/02/18 01:56:52;;;;;;;;;;;;;;;8.86;59.67;99272.38;4332429;33;20002;-89
2022/02/18 01:59:17;;;;;;;;;;;;;;;8.87;59.67;99261.09;4333458;33;20318;-89
2022/02/18 02:01:42;;;;;;;;;;;;;;;8.93;59.68;99253.09;4332299;33;20022;-87
2022/02/18 02:04:07;;;;;;;;;;;;;;;8.98;59.69;99250.34;4331825;33;20031;-88
2022/02/18 02:06:33;;;;;;;;;;;;;;;8.77;59.67;99246.75;4333580;33;19986;-89
2022/02/18 02:08:58;;;;;;;;;;;;;;;8.87;59.67;99225.63;4334644;33;20023;-88
2022/02/18 02:11:23;;;;;;;;;;;;;;;9.09;59.69;99217.94;4334227;33;20007;-89
2022/02/18 02:13:50;;;;;;;;;;;;;;;8.81;59.67;99218.03;4339955;33;20018;-88
2022/02/18 02:16:15;;;;;;;;;;;;;;;8.87;59.67;99217.81;4348741;33;19953;-89
2022/02/18 02:18:41;;;;;;;;;;;;;;;8.91;59.69;99227.19;4344378;33;20002;-89
2022/02/18 02:21:06;;;;;;;;;;;;;;;8.85;59.68;99231.75;4341269;33;20019;-90
2022/02/18 02:23:32;;;;;;;;;;;;;;;8.90;59.68;99224.66;4334909;33;19987;-87
2022/02/18 02:25:57;;;;;;;;;;;;;;;8.71;59.67;99232.19;4332563;33;19994;-87
2022/02/18 02:28:22;;;;;;;;;;;;;;;8.91;59.68;99234.97;4331694;33;27766;-87
2022/02/18 02:30:48;;;;;;;;;;;;;;;9.05;59.69;99250.12;4333015;33;19988;-85
2022/02/18 02:33:13;;;;;;;;;;;;;;;9.14;59.70;99262.78;4332994;33;20311;-86
2022/02/18 02:35:38;;;;;;;;;;;;;;;8.95;59.68;99263.44;4331746;33;20020;-87
2022/02/18 02:38:04;;;;;;;;;;;;;;;8.97;59.69;99274.63;4331670;33;19987;-86
2022/02/18 02:40:29;;;;;;;;;;;;;;;9.04;59.69;99270.94;4331720;33;20051;-86
2022/02/18 02:42:54;;;;;;;;;;;;;;;9.09;59.69;99284.59;4331444;33;26361;-87
2022/02/18 02:45:19;;;;;;;;;;;;;;;9.21;59.70;99303.19;4331955;33;20012;-87
2022/02/18 02:47:45;;;;;;;;;;;;;;;9.04;59.68;99312.47;4344039;33;19999;-87
2022/02/18 02:50:11;;;;;;;;;;;;;;;9.12;59.69;99313.06;4331674;33;20027;-86
2022/02/18 02:52:36;;;;;;;;;;;;;;;9.12;59.70;99329.47;4347796;33;20047;-86
2022/02/18 02:55:03;;;;;;;;;;;;;;;9.16;59.69;99335.41;4347751;32;19990;-87
2022/02/18 02:57:28;;;;;;;;;;;;;;;9.16;59.69;99343.22;4334217;33;20005;-86
2022/02/18 02:59:54;;;;;;;;;;;;;;;9.22;59.70;99348.19;4334022;33;20003;-85
2022/02/18 03:02:19;;;;;;;;;;;;;;;9.14;59.69;99353.66;4334103;33;19991;-85
2022/02/18 03:04:44;;;;;;;;;;;;;;;9.10;59.69;99348.62;4333983;33;20017;-86
2022/02/18 03:07:10;;;;;;;;;;;;;;;9.03;59.68;99373.09;4347279;33;23152;-86
2022/02/18 03:09:35;;;;;;;;;;;;;;;9.17;59.69;99381.25;4333947;33;20006;-86
2022/02/18 03:12:00;;;;;;;;;;;;;;;9.05;59.68;99392.91;4333967;33;19996;-86
2022/02/18 03:14:25;;;;;;;;;;;;;;;9.19;59.70;99387.25;4347285;33;23502;-86
2022/02/18 03:16:51;;;;;;;;;;;;;;;9.10;59.69;99374.56;4322036;33;20018;-86
2022/02/18 03:19:16;;;;;;;;;;;;;;;9.14;59.69;99390.00;4334263;33;20520;-87
2022/02/18 03:21:41;;;;;;;;;;;;;;;9.01;59.68;99395.66;4334126;33;20043;-87
2022/02/18 03:24:07;;;;;;;;;;;;;;;9.08;59.68;99402.34;4334197;33;19988;-87
2022/02/18 03:26:32;;;;;;;;;;;;;;;9.10;59.69;99413.53;4333890;33;20451;-87
2022/02/18 03:28:58;;;;;;;;;;;;;;;9.08;59.69;99410.97;4347299;33;20484;-87
2022/02/18 03:31:23;;;;;;;;;;;;;;;9.03;59.68;99405.09;4346581;33;23125;-87
2022/02/18 03:33:48;;;;;;;;;;;;;;;9.07;59.69;99401.50;4347402;33;20034;-86
2022/02/18 03:36:13;;;;;;;;;;;;;;;8.89;59.68;99405.50;4347720;33;19995;-86
2022/02/18 03:38:38;;;;;;;;;;;;;;;9.02;59.68;99400.78;4347533;33;20027;-86
2022/02/18 03:41:04;;;;;;;;;;;;;;;8.90;59.68;99412.38;4347496;33;20003;-87
2022/02/18 03:43:29;;;;;;;;;;;;;;;8.88;59.67;99418.53;4347628;33;19968;-86
2022/02/18 03:45:54;;;;;;;;;;;;;;;8.83;59.68;99413.47;4333992;33;19999;-85
2022/02/18 03:48:19;;;;;;;;;;;;;;;8.93;59.68;99419.22;4347381;33;20569;-86
2022/02/18 03:50:45;;;;;;;;;;;;;;;8.95;59.68;99421.78;4333565;33;20030;-87
2022/02/18 03:53:10;;;;;;;;;;;;;;;8.98;59.69;99416.47;4333906;33;20051;-88
2022/02/18 03:55:35;;;;;;;;;;;;;;;8.88;59.67;99424.56;4333967;33;20346;-87
2022/02/18 03:58:01;;;;;;;;;;;;;;;8.83;59.68;99442.03;4333894;33;20099;-86
2022/02/18 04:00:26;;;;;;;;;;;;;;;8.81;59.67;99425.66;4334325;33;20034;-87
2022/02/18 04:02:51;;;;;;;;;;;;;;;8.71;59.67;99444.97;4335008;33;19975;-88
2022/02/18 04:05:16;;;;;;;;;;;;;;;8.80;59.67;99446.47;4336161;33;20035;-89
2022/02/18 04:07:42;;;;;;;;;;;;;;;8.85;59.68;99453.22;4342033;33;26296;-86
2022/02/18 04:10:07;;;;;;;;;;;;;;;8.91;59.68;99466.00;4349688;32;19999;-87
2022/02/18 04:12:32;;;;;;;;;;;;;;;8.81;59.67;99458.53;4340731;33;20022;-87
2022/02/18 04:14:57;;;;;;;;;;;;;;;8.75;59.67;99466.47;4346246;33;20296;-87
2022/02/18 04:17:24;;;;;;;;;;;;;;;8.76;59.67;99466.47;4333625;33;20324;-87
2022/02/18 04:19:49;;;;;;;;;;;;;;;8.81;59.67;99479.31;4333719;33;19980;-86
2022/02/18 04:22:14;;;;;;;;;;;;;;;8.75;59.67;99476.88;4321121;33;20040;-88
2022/02/18 04:24:39;;;;;;;;;;;;;;;8.78;59.67;99482.84;4333337;33;20018;-86
2022/02/18 04:27:05;;;;;;;;;;;;;;;8.60;59.66;99492.00;4346438;33;27004;-87
2022/02/18 04:29:30;;;;;;;;;;;;;;;8.62;59.66;99484.16;4332802;33;20441;-87
2022/02/18 04:31:55;;;;;;;;;;;;;;;8.62;59.66;99484.16;4346663;33;20428;-87
2022/02/18 04:34:20;;;;;;;;;;;;;;;8.70;59.67;99478.75;4333335;33;20273;-86
2022/02/18 04:36:45;;;;;;;;;;;;;;;8.80;59.67;99494.03;4333207;33;19987;-86
2022/02/18 04:39:11;;;;;;;;;;;;;;;8.72;59.67;99508.09;4332924;33;20035;-87
2022/02/18 04:41:38;;;;;;;;;;;;;;;8.68;59.67;99506.47;4333713;33;20034;-87
2022/02/18 04:44:04;;;;;;;;;;;;;;;8.64;59.66;99513.50;4335197;33;20013;-87
2022/02/18 04:46:29;;;;;;;;;;;;;;;8.77;59.67;99508.84;4334936;33;20329;-87
2022/02/18 04:48:55;;;;;;;;;;;;;;;8.65;59.66;99506.56;4334984;33;20329;-89
2022/02/18 04:51:20;;;;;;;;;;;;;;;8.66;59.66;99505.69;4335138;33;20030;-89
2022/02/18 04:53:45;;;;;;;;;;;;;;;8.59;59.67;99505.00;4348981;33;20365;-87
2022/02/18 04:56:10;;;;;;;;;;;;;;;8.61;59.66;99498.03;4348749;33;19984;-87
2022/02/18 04:58:36;;;;;;;;;;;;;;;8.66;59.67;99490.97;4348482;33;20059;-87
2022/02/18 05:01:01;;;;;;;;;;;;;;;8.57;59.66;99494.69;4347099;33;20326;-88
2022/02/18 05:03:27;;;;;;;;;;;;;;;8.60;59.67;99491.16;4334824;33;20015;-87
2022/02/18 05:05:52;;;;;;;;;;;;;;;8.75;59.67;99487.25;4334432;33;21692;-86
2022/02/18 05:08:17;;;;;;;;;;;;;;;8.67;59.67;99492.66;4348113;33;19991;-86
2022/02/18 05:10:42;;;;;;;;;;;;;;;8.55;59.65;99493.88;4348458;33;20035;-87
2022/02/18 05:13:08;;;;;;;;;;;;;;;8.71;59.67;99498.59;4334815;33;20388;-87
2022/02/18 05:15:33;;;;;;;;;;;;;;;8.68;59.67;99499.56;4348671;33;19987;-86
2022/02/18 05:18:02;;;;;;;;;;;;;;;8.49;59.65;99496.63;4334759;33;19994;-86
2022/02/18 05:20:27;;;;;;;;;;;;;;;8.51;59.66;99489.63;4348287;33;19997;-86
2022/02/18 05:22:52;;;;;;;;;;;;;;;8.65;59.67;99516.94;4334749;33;20010;-86
2022/02/18 05:25:18;;;;;;;;;;;;;;;8.51;59.66;99519.91;4334488;33;19995;-86
2022/02/18 05:27:43;;;;;;;;;;;;;;;8.47;59.65;99506.19;4334750;33;20023;-87
2022/02/18 05:30:08;;;;;;;;;;;;;;;8.47;59.66;99513.13;4334853;33;20281;-87
2022/02/18 05:32:33;;;;;;;;;;;;;;;8.49;59.65;99509.59;4334923;33;19996;-86
2022/02/18 05:34:59;;;;;;;;;;;;;;;8.42;59.65;99508.06;4334330;33;20058;-87
2022/02/18 05:37:24;;;;;;;;;;;;;;;8.40;59.65;99511.59;4334891;33;19991;-86
2022/02/18 05:39:49;;;;;;;;;;;;;;;8.31;59.64;99505.72;4334712;33;20012;-87
2022/02/18 05:42:14;;;;;;;;;;;;;;;8.33;59.65;99516.06;4329897;33;25592;-86
2022/02/18 05:44:40;;;;;;;;;;;;;;;8.31;59.65;99518.69;4319622;33;20377;-87
2022/02/18 05:47:05;;;;;;;;;;;;;;;8.38;59.65;99511.63;4319343;33;19980;-86
2022/02/18 05:49:30;;;;;;;;;;;;;;;8.55;59.66;99512.03;4319485;33;20325;-87
2022/02/18 05:51:56;;;;;;;;;;;;;;;8.42;59.65;99515.00;4319324;33;20064;-87
2022/02/18 05:54:21;;;;;;;;;;;;;;;8.47;59.66;99520.91;4319481;33;20025;-86
2022/02/18 05:56:48;;;;;;;;;;;;;;;8.41;59.65;99528.84;4307165;33;20015;-87
2022/02/18 05:59:13;;;;;;;;;;;;;;;8.54;59.66;99535.41;4319674;33;19990;-88
2022/02/18 06:01:43;;;;;;;;;;;;;;;8.53;59.66;99536.31;4319678;33;20033;-87
2022/02/18 06:04:08;;;;;;;;;;;;;;;8.53;59.66;99538.91;4319928;33;20374;-88
2022/02/18 06:06:33;;;;;;;;;;;;;;;8.67;59.67;99551.50;4319728;33;20023;-87
2022/02/18 06:08:58;;;;;;;;;;;;;;;8.77;59.67;99542.56;4333162;33;20278;-88
2022/02/18 06:11:23;;;;;;;;;;;;;;;8.76;59.67;99546.91;4319537;33;20050;-87
2022/02/18 06:13:49;;;;;;;;;;;;;;;8.77;59.67;99547.75;4333385;33;19996;-87
2022/02/18 06:16:14;;;;;;;;;;;;;;;8.83;59.68;99558.81;4319704;33;19980;-88
2022/02/18 06:18:39;;;;;;;;;;;;;;;9.01;59.68;99556.59;4318836;33;26938;-86
2022/02/18 06:21:04;;;;;;;;;;;;;;;8.88;59.67;99576.84;4319844;33;20346;-87
2022/02/18 06:23:30;;;;;;;;;;;;;;;8.83;59.68;99571.78;4319468;33;20039;-90
2022/02/18 06:25:55;;;;;;;;;;;;;;;9.02;59.68;99571.28;4319629;33;20374;-87
2022/02/18 06:28:20;;;;;;;;;;;;;;;9.06;59.69;99568.56;4307395;33;19999;-87
2022/02/18 06:30:45;;;;;;;;;;;;;;;8.87;59.67;99573.41;4319516;33;19984;-88
2022/02/18 06:33:11;;;;;;;;;;;;;;;8.97;59.69;99565.34;4319275;33;20415;-87
2022/02/18 06:35:37;;;;;;;;;;;;;;;9.06;59.69;99563.38;4319625;33;20005;-87
2022/02/18 06:38:02;;;;;;;;;;;;;;;9.09;59.69;99562.41;4319585;33;20003;-87
2022/02/18 06:40:27;;;;;;;;;;;;;;;8.92;59.68;99565.47;4319535;33;20028;-87
2022/02/18 06:42:53;;;;;;;;;;;;;;;9.02;59.68;99573.87;4319518;33;20018;-87
2022/02/18 06:45:18;;;;;;;;;;;;;;;9.03;59.68;99555.66;4319494;33;20019;-88
2022/02/18 06:47:44;;;;;;;;;;;;;;;9.20;59.70;99562.94;4333141;33;19987;-87
2022/02/18 06:50:09;;;;;;;;;;;;;;;9.25;59.69;99565.44;4319617;33;20526;-87
2022/02/18 06:52:34;;;;;;;;;;;;;;;9.21;59.69;99568.09;4307386;33;20364;-87
2022/02/18 06:55:00;;;;;;;;;;;;;;;9.32;59.70;99575.59;4319628;33;20424;-86
2022/02/18 06:57:25;;;;;;;;;;;;;;;9.29;59.70;99564.44;4307056;33;19994;-88
2022/02/18 06:59:50;;;;;;;;;;;;;;;9.35;59.71;99567.69;4319725;33;19995;-87
2022/02/18 07:02:16;;;;;;;;;;;;;;;9.44;59.71;99567.41;4319865;33;20365;-88
2022/02/18 07:04:41;;;;;;;;;;;;;;;9.68;59.72;99570.16;4320008;33;20014;-87
2022/02/18 07:07:06;;;;;;;;;;;;;;;9.77;59.72;99570.72;4334146;33;20629;-87
2022/02/18 07:09:32;;;;;;;;;;;;;;;9.97;59.74;99587.44;4321453;33;20015;-87
2022/02/18 07:11:57;;;;;;;;;;;;;;;10.07;59.73;99594.88;4310015;33;20293;-87
2022/02/18 07:14:22;;;;;;;;;;;;;;;10.05;59.74;99599.28;4310573;33;25218;-87
2022/02/18 07:16:47;;;;;;;;;;;;;;;9.99;59.74;99607.31;4331506;33;20010;-88
2022/02/18 07:19:13;;;;;;;;;;;;;;;10.09;59.75;99613.91;4334964;33;19995;-88
2022/02/18 07:21:38;;;;;;;;;;;;;;;10.18;59.75;99617.12;4343817;33;19992;-87
2022/02/18 07:24:05;;;;;;;;;;;;;;;10.14;59.74;99605.94;4335814;33;20530;-88
2022/02/18 07:26:30;;;;;;;;;;;;;;;10.01;59.75;99615.06;4322032;33;20611;-86
2022/02/18 07:28:55;;;;;;;;;;;;;;;10.09;59.75;99613.91;4320184;33;20022;-90
2022/02/18 07:31:21;;;;;;;;;;;;;;;10.20;59.75;99610.13;4320171;33;20354;-87
2022/02/18 07:33:46;;;;;;;;;;;;;;;10.30;59.75;99614.13;4319836;33;20143;-87
2022/02/18 07:36:11;;;;;;;;;;;;;;;10.43;59.76;99608.47;4334089;33;19999;-88
2022/02/18 07:38:36;;;;;;;;;;;;;;;10.51;59.77;99605.63;4319937;33;20015;-89
2022/02/18 07:41:02;;;;;;;;;;;;;;;10.50;59.77;99603.06;4319942;33;20044;-88
2022/02/18 07:43:27;;;;;;;;;;;;;;;10.70;59.78;99598.03;4333332;33;20161;-89
2022/02/18 07:45:56;;;;;;;;;;;;;;;10.74;59.78;99597.00;4307203;33;19980;-89
2022/02/18 07:48:21;;;;;;;;;;;;;;;10.62;59.78;99602.63;4331893;33;19992;-89
2022/02/18 07:50:46;;;;;;;;;;;;;;;10.68;59.77;99600.69;4319245;33;30040;-89
2022/02/18 07:53:11;;;;;;;;;;;;;;;10.87;59.79;99594.81;4320275;33;19980;-90
2022/02/18 07:55:37;;;;;;;;;;;;;;;10.80;59.78;99601.16;4319601;33;25297;-90
2022/02/18 07:58:02;;;;;;;;;;;;;;;10.94;59.79;99589.34;4319740;33;20007;-89
2022/02/18 08:00:28;;;;;;;;;;;;;;;10.82;59.78;99587.16;4332400;33;27964;-89
2022/02/18 08:02:53;;;;;;;;;;;;;;;10.81;59.78;99600.25;4319726;33;19994;-90
2022/02/18 08:05:18;;;;;;;;;;;;;;;11.00;59.80;99594.31;4332767;33;19996;-89
2022/02/18 08:07:44;;;;;;;;;;;;;;;11.22;59.82;99599.59;4332296;33;20322;-90
2022/02/18 08:10:10;;;;;;;;;;;;;;;11.27;59.81;99602.88;4319019;33;20478;-90
2022/02/18 08:12:35;;;;;;;;;;;;;;;11.06;59.79;99606.28;4333442;33;19987;-89
2022/02/18 08:15:00;;;;;;;;;;;;;;;11.10;59.80;99607.84;4319526;33;20027;-89
2022/02/18 08:17:32;;;;;;;;;;;;;;;11.16;59.80;99615.47;4323488;33;19975;-89
2022/02/18 08:19:58;;;;;;;;;;;;;;;11.22;59.81;99615.22;4321672;33;20326;-88
2022/02/18 08:22:27;;;;;;;;;;;;;;;11.21;59.80;99615.28;4320317;33;19989;-90
2022/02/18 08:24:52;;;;;;;;;;;;;;;11.31;59.81;99603.63;4319587;33;20376;-88
2022/02/18 08:27:17;;;;;;;;;;;;;;;11.25;59.81;99612.50;4319247;33;19990;-90
2022/02/18 08:29:42;;;;;;;;;;;;;;;11.17;59.80;99614.56;4306184;33;29574;-89
2022/02/18 08:32:08;;;;;;;;;;;;;;;10.89;59.79;99612.09;4318742;33;20007;-89
2022/02/18 08:34:33;;;;;;;;;;;;;;;10.93;59.79;99624.09;4318851;33;19976;-90
2022/02/18 08:36:58;;;;;;;;;;;;;;;10.88;59.79;99627.75;4318577;33;20341;-88
2022/02/18 08:39:23;;;;;;;;;;;;;;;11.01;59.80;99626.44;4318794;33;19999;-89
2022/02/18 08:41:49;;;;;;;;;;;;;;;10.82;59.79;99639.25;4318414;33;21005;-89
2022/02/18 08:44:14;;;;;;;;;;;;;;;10.98;59.79;99648.22;4320034;33;19998;-89
2022/02/18 08:46:39;;;;;;;;;;;;;;;10.86;59.79;99655.59;4307732;33;20044;-88
2022/02/18 08:49:05;;;;;;;;;;;;;;;10.96;59.79;99659.59;4306322;33;20293;-89
2022/02/18 08:51:31;;;;;;;;;;;;;;;11.18;59.80;99670.97;4320707;33;20091;-88
2022/02/18 08:53:56;;;;;;;;;;;;;;;11.10;59.80;99672.13;4306310;33;20027;-89
2022/02/18 08:56:21;;;;;;;;;;;;;;;11.16;59.81;99675.38;4306288;33;25999;-89
2022/02/18 08:58:47;;;;;;;;;;;;;;;11.23;59.81;99676.00;4306221;33;20063;-89
2022/02/18 09:01:12;;;;;;;;;;;;;;;11.43;59.82;99675.28;4317876;33;23648;-89
2022/02/18 09:03:37;;;;;;;;;;;;;;;11.50;59.82;99680.22;4306225;33;20439;-89
2022/02/18 09:06:02;;;;;;;;;;;;;;;11.51;59.82;99675.84;4306344;33;20042;-89
2022/02/18 09:08:28;;;;;;;;;;;;;;;11.36;59.81;99680.75;4331908;33;20010;-89
2022/02/18 09:10:53;;;;;;;;;;;;;;;11.30;59.81;99686.16;4318176;33;19976;-89
2022/02/18 09:13:23;;;;;;;;;;;;;;;11.38;59.82;99689.34;4320223;33;20023;-90
2022/02/18 09:15:48;;;;;;;;;;;;;;;11.50;59.82;99682.81;4318668;33;19991;-89
2022/02/18 09:18:13;;;;;;;;;;;;;;;11.55;59.82;99682.66;4331684;33;20801;-89
2022/02/18 09:20:38;;;;;;;;;;;;;;;11.60;59.83;99684.19;4331496;33;19996;-89
2022/02/18 09:23:04;;;;;;;;;;;;;;;11.80;59.84;99693.03;4318265;33;20048;-89
2022/02/18 09:25:30;;;;;;;;;;;;;;;11.90;59.85;99684.81;4318439;33;20006;-89
2022/02/18 09:27:55;;;;;;;;;;;;;;;12.05;59.85;99690.34;4298430;33;785928;-89
2022/02/18 09:30:20;;;;;;;;;;;;;;;11.97;59.86;99688.03;4320401;33;19992;-89
2022/02/18 09:32:46;;;;;;;;;;;;;;;11.95;59.85;99695.06;4321052;33;20035;-88
2022/02/18 09:35:11;;;;;;;;;;;;;;;11.95;59.84;99695.06;4324663;33;19984;-89
2022/02/18 09:37:37;;;;;;;;;;;;;;;11.99;59.85;99692.28;4322393;33;19999;-89
2022/02/18 09:40:03;;;;;;;;;;;;;;;12.04;59.85;99691.25;4320670;33;19984;-88
2022/02/18 09:42:28;;;;;;;;;;;;;;;11.89;59.84;99695.31;4320164;33;19979;-88
2022/02/18 09:44:54;;;;;;;;;;;;;;;12.07;59.86;99691.16;4320263;33;20003;-89
2022/02/18 09:47:19;;;;;;;;;;;;;;;12.03;59.85;99689.56;4333437;33;19976;-89
2022/02/18 09:49:44;;;;;;;;;;;;;;;12.13;59.86;99696.97;4307696;33;20004;-89
2022/02/18 09:52:10;;;;;;;;;;;;;;;11.96;59.84;99687.19;4319866;33;20000;-89
2022/02/18 09:54:35;;;;;;;;;;;;;;;12.12;59.86;99699.66;4307757;33;20258;-90
2022/02/18 09:57:00;;;;;;;;;;;;;;;12.17;59.86;99690.72;4320121;33;20003;-89
2022/02/18 09:59:26;;;;;;;;;;;;;;;12.32;59.87;99696.25;4333529;33;20569;-89
2022/02/18 10:01:52;;;;;;;;;;;;;;;12.26;59.86;99694.72;4308048;33;20000;-90
2022/02/18 10:04:17;;;;;;;;;;;;;;;12.14;59.86;99701.28;4307676;33;20408;-90
2022/02/18 10:06:42;;;;;;;;;;;;;;;12.05;59.86;99701.63;4307204;33;26407;-89
2022/02/18 10:09:07;;;;;;;;;;;;;;;12.17;59.86;99702.91;4308715;33;20040;-90
2022/02/18 10:11:48;;;;;;;;;;;;;;;12.32;59.87;99704.09;4319240;33;28254;-88
2022/02/18 10:14:14;;;;;;;;;;;;;;;12.15;59.86;99702.97;4319983;33;20007;-88
2022/02/18 10:16:39;;;;;;;;;;;;;;;12.07;59.86;99709.41;4332744;33;29743;-88
2022/02/18 10:19:07;;;;;;;;;;;;;;;12.08;59.85;99711.13;4332718;33;29595;-88
2022/02/18 10:21:33;;;;;;;;;;;;;;;12.20;59.85;99708.03;4319900;33;20038;-88
2022/02/18 10:24:24;;;;;;;;;;;;;;;12.06;59.86;99692.03;4319755;33;20019;-88
2022/02/18 10:26:50;;;;;;;;;;;;;;;12.08;59.85;99698.91;4330889;33;19984;-88
2022/02/18 10:29:23;;;;;;;;;;;;;;;12.15;59.86;99689.94;4320581;33;20518;-89
2022/02/18 10:32:07;;;;;;;;;;;;;;;12.10;59.86;99678.84;4319407;33;20301;-88
2022/02/18 10:34:38;;;;;;;;;;;;;;;12.14;59.86;99674.34;4333632;33;19990;-90
2022/02/18 10:37:04;;;;;;;;;;;;;;;12.10;59.86;99670.16;4319586;33;20035;-88
2022/02/18 10:39:30;;;;;;;;;;;;;;;12.19;59.86;99670.63;4319448;33;19984;-87
2022/02/18 10:41:59;;;;;;;;;;;;;;;12.55;59.89;99664.84;4319595;33;20003;-88
2022/02/18 10:44:25;;;;;;;;;;;;;;;12.77;59.89;99664.78;4319956;33;19991;-89
2022/02/18 10:46:55;;;;;;;;;;;;;;;12.96;59.91;99651.78;4319808;33;20046;-89
2022/02/18 10:49:29;;;;;;;;;;;;;;;13.21;59.92;99637.59;4319897;33;20341;-88
2022/02/18 10:51:56;;;;;;;;;;;;;;;13.41;59.92;99646.31;4335516;33;20038;-89
2022/02/18 10:54:31;;;;;;;;;;;;;;;13.52;59.93;99639.69;4319869;33;20055;-89
2022/02/18 10:57:15;;;;;;;;;;;;;;;13.74;59.95;99644.78;4307729;33;19998;-90
2022/02/18 10:59:40;;;;;;;;;;;;;;;13.71;59.94;99646.69;4333355;33;19990;-89
2022/02/18 11:02:06;;;;;;;;;;;;;;;13.59;59.94;99639.41;4319640;33;20536;-89
2022/02/18 11:04:31;;;;;;;;;;;;;;;13.72;59.95;99636.16;4319631;33;19999;-89
2022/02/18 11:07:12;;;;;;;;;;;;;;;14.05;59.96;99638.09;4319074;33;19996;-89
2022/02/18 11:09:38;;;;;;;;;;;;;;;14.02;59.97;99631.25;4307520;33;19995;-89
2022/02/18 11:12:09;;;;;;;;;;;;;;;14.03;59.97;99629.47;4319575;33;20258;-88
2022/02/18 11:14:48;;;;;;;;;;;;;;;14.09;59.96;99618.72;4319495;33;20003;-86
2022/02/18 11:17:14;;;;;;;;;;;;;;;14.08;59.96;99610.00;4319867;33;19995;-88
2022/02/18 11:19:50;;;;;;;;;;;;;;;13.74;59.95;99608.16;4319481;33;19979;-88
2022/02/18 11:22:17;;;;;;;;;;;;;;;13.90;59.96;99607.41;4320473;33;19998;-90
2022/02/18 11:24:43;;;;;;;;;;;;;;;14.16;59.97;99591.31;4319565;33;19992;-89
2022/02/18 11:27:08;;;;;;;;;;;;;;;14.14;59.97;99578.28;4320397;33;20407;-89
2022/02/18 11:29:35;;;;;;;;;;;;;;;14.21;59.97;99570.16;4318782;33;27329;-89
2022/02/18 11:32:03;;;;;;;;;;;;;;;14.32;59.99;99566.06;4319353;33;20691;-89
2022/02/18 11:34:39;;;;;;;;;;;;;;;14.54;59.99;99558.00;4319686;33;19992;-88
2022/02/18 11:37:16;;;;;;;;;;;;;;;14.81;60.01;99554.88;4319314;33;20722;-88
2022/02/18 11:39:44;;;;;;;;;;;;;;;14.93;60.01;99547.22;4332901;33;19972;-89
2022/02/18 11:42:28;;;;;;;;;;;;;;;14.99;60.01;99553.91;4332813;33;19987;-89
2022/02/18 11:44:55;;;;;;;;;;;;;;;15.19;60.03;99531.88;4333247;33;19984;-90
2022/02/18 11:47:21;;;;;;;;;;;;;;;15.49;60.05;99535.44;4322128;33;19996;-89
2022/02/18 11:49:47;;;;;;;;;;;;;;;15.81;60.06;99522.31;4319485;33;19972;-87
2022/02/18 11:52:13;;;;;;;;;;;;;;;16.01;60.07;99521.16;4318431;33;20035;-87
2022/02/18 11:54:38;;;;;;;;;;;;;;;15.89;60.07;99520.09;4307246;33;19995;-86
2022/02/18 11:57:04;;;;;;;;;;;;;;;15.74;60.06;99518.34;4319292;33;20000;-87
2022/02/18 11:59:43;;;;;;;;;;;;;;;15.73;60.05;99519.28;4333059;33;20310;-86
2022/02/18 12:02:09;;;;;;;;;;;;;;;15.90;60.07;99514.75;4319358;33;19988;-87
2022/02/18 12:04:35;;;;;;;;;;;;;;;16.17;60.08;99507.06;4332845;33;19991;-87
2022/02/18 12:07:19;;;;;;;;;;;;;;;16.16;60.08;99508.00;4333019;33;19999;-88
2022/02/18 12:09:47;;;;;;;;;;;;;;;16.14;60.08;99504.63;4335732;33;19967;-88
2022/02/18 12:12:19;;;;;;;;;;;;;;;16.21;60.08;99510.34;4321722;33;19988;-88
2022/02/18 12:14:46;;;;;;;;;;;;;;;16.25;60.09;99496.09;4307956;33;19988;-89
2022/02/18 12:17:12;;;;;;;;;;;;;;;16.17;60.08;99495.72;4320288;33;19976;-88
2022/02/18 12:19:37;;;;;;;;;;;;;;;16.15;60.07;99498.44;4320197;33;20258;-88
2022/02/18 12:22:02;;;;;;;;;;;;;;;16.26;60.08;99485.50;4319733;33;20310;-88
2022/02/18 12:24:31;;;;;;;;;;;;;;;16.28;60.08;99486.25;4332844;33;19999;-88
2022/02/18 12:27:15;;;;;;;;;;;;;;;16.23;60.08;99480.44;4332536;33;19983;-88
2022/02/18 12:29:40;;;;;;;;;;;;;;;16.28;60.09;99480.16;4332502;33;19980;-88
2022/02/18 12:32:05;;;;;;;;;;;;;;;16.27;60.09;99481.94;4318369;33;26999;-89
2022/02/18 12:34:31;;;;;;;;;;;;;;;16.51;60.10;99468.25;4318910;33;19991;-88
2022/02/18 12:36:57;;;;;;;;;;;;;;;16.55;60.10;99469.75;4318847;33;19999;-88
2022/02/18 12:39:34;;;;;;;;;;;;;;;16.25;60.09;99460.16;4332424;33;19976;-88
2022/02/18 12:42:04;;;;;;;;;;;;;;;16.34;60.09;99452.69;4332301;33;19976;-88
2022/02/18 12:44:30;;;;;;;;;;;;;;;16.45;60.09;99450.25;4319772;33;20000;-88
2022/02/18 12:46:55;;;;;;;;;;;;;;;16.46;60.11;99444.06;4318314;33;20038;-87